sensor_id;sensor_type;location;lat;lon;timestamp;temperature;humidity
33715;DHT22;20043;50.998;4.754;2023-04-25T00:01:47;10.60;99.90
33715;DHT22;20043;50.998;4.754;2023-04-25T00:04:13;10.60;99.90
33715;DHT22;20043;50.998;4.754;2023-04-25T00:06:38;10.60;99.90
33715;DHT22;20043;50.998;4.754;2023-04-25T00:09:05;10.60;99.90
33715;DHT22;20043;50.998;4.754;2023-04-25T00:11:33;10.50;99.90
33715;DHT22;20043;50.998;4.754;2023-04-25T00:13:59;10.50;99.90
33715;DHT22;20043;50.998;4.754;2023-04-25T00:16:27;10.50;99.90
33715;DHT22;20043;50.998;4.754;2023-04-25T00:18:54;10.60;99.90
33715;DHT22;20043;50.998;4.754;2023-04-25T00:21:20;10.60;99.90
33715;DHT22;20043;50.998;4.754;2023-04-25T00:23:46;10.60;99.90
33715;DHT22;20043;50.998;4.754;2023-04-25T00:26:12;10.70;99.90
33715;DHT22;20043;50.998;4.754;2023-04-25T00:28:39;10.80;99.90
33715;DHT22;20043;50.998;4.754;2023-04-25T00:31:05;10.80;99.90
33715;DHT22;20043;50.998;4.754;2023-04-25T00:33:31;10.70;99.90
33715;DHT22;20043;50.998;4.754;2023-04-25T00:35:56;10.60;99.90
33715;DHT22;20043;50.998;4.754;2023-04-25T00:38:22;10.60;99.90
33715;DHT22;20043;50.998;4.754;2023-04-25T00:40:48;10.60;99.90
33715;DHT22;20043;50.998;4.754;2023-04-25T00:43:13;10.60;99.90
33715;DHT22;20043;50.998;4.754;2023-04-25T00:45:39;10.50;99.90
33715;DHT22;20043;50.998;4.754;2023-04-25T00:48:06;10.50;99.90
33715;DHT22;20043;50.998;4.754;2023-04-25T00:50:33;10.40;99.90
33715;DHT22;20043;50.998;4.754;2023-04-25T00:53:00;10.40;99.90
33715;DHT22;20043;50.998;4.754;2023-04-25T00:55:26;10.50;99.90
33715;DHT22;20043;50.998;4.754;2023-04-25T00:57:52;10.60;99.90
33715;DHT22;20043;50.998;4.754;2023-04-25T01:00:25;10.60;99.90
33715;DHT22;20043;50.998;4.754;2023-04-25T01:02:50;10.70;99.90
33715;DHT22;20043;50.998;4.754;2023-04-25T01:05:16;10.70;99.90
33715;DHT22;20043;50.998;4.754;2023-04-25T01:07:44;10.80;99.90
33715;DHT22;20043;50.998;4.754;2023-04-25T01:10:11;10.80;99.90
33715;DHT22;20043;50.998;4.754;2023-04-25T01:12:37;10.80;99.90
33715;DHT22;20043;50.998;4.754;2023-04-25T01:15:03;10.70;99.90
33715;DHT22;20043;50.998;4.754;2023-04-25T01:17:28;10.70;99.90
33715;DHT22;20043;50.998;4.754;2023-04-25T01:19:54;10.60;99.90
33715;DHT22;20043;50.998;4.754;2023-04-25T01:22:21;10.60;99.90
33715;DHT22;20043;50.998;4.754;2023-04-25T01:24:47;10.60;99.90
33715;DHT22;20043;50.998;4.754;2023-04-25T01:27:12;10.60;99.90
33715;DHT22;20043;50.998;4.754;2023-04-25T01:29:38;10.60;99.90
33715;DHT22;20043;50.998;4.754;2023-04-25T01:32:04;10.60;99.90
33715;DHT22;20043;50.998;4.754;2023-04-25T01:34:30;10.70;99.90
33715;DHT22;20043;50.998;4.754;2023-04-25T01:36:56;10.70;99.90
33715;DHT22;20043;50.998;4.754;2023-04-25T01:39:22;10.60;99.90
33715;DHT22;20043;50.998;4.754;2023-04-25T01:41:48;10.50;99.90
33715;DHT22;20043;50.998;4.754;2023-04-25T01:44:14;10.50;99.90
33715;DHT22;20043;50.998;4.754;2023-04-25T01:46:40;10.60;99.90
33715;DHT22;20043;50.998;4.754;2023-04-25T01:49:06;10.60;99.90
33715;DHT22;20043;50.998;4.754;2023-04-25T01:51:31;10.70;99.90
33715;DHT22;20043;50.998;4.754;2023-04-25T01:53:58;10.60;99.90
33715;DHT22;20043;50.998;4.754;2023-04-25T01:56:24;10.70;99.90
33715;DHT22;20043;50.998;4.754;2023-04-25T01:58:50;10.70;99.90
33715;DHT22;20043;50.998;4.754;2023-04-25T02:01:16;10.70;99.90
33715;DHT22;20043;50.998;4.754;2023-04-25T02:03:43;10.70;99.90
33715;DHT22;20043;50.998;4.754;2023-04-25T02:06:08;10.60;99.90
33715;DHT22;20043;50.998;4.754;2023-04-25T02:08:34;10.50;99.90
33715;DHT22;20043;50.998;4.754;2023-04-25T02:11:00;10.50;99.90
33715;DHT22;20043;50.998;4.754;2023-04-25T02:13:26;10.50;99.90
33715;DHT22;20043;50.998;4.754;2023-04-25T02:15:51;10.50;99.90
33715;DHT22;20043;50.998;4.754;2023-04-25T02:18:17;10.60;99.90
33715;DHT22;20043;50.998;4.754;2023-04-25T02:20:43;10.50;99.90
33715;DHT22;20043;50.998;4.754;2023-04-25T02:23:09;10.50;99.90
33715;DHT22;20043;50.998;4.754;2023-04-25T02:25:35;10.50;99.90
33715;DHT22;20043;50.998;4.754;2023-04-25T02:28:00;10.50;99.90
33715;DHT22;20043;50.998;4.754;2023-04-25T02:30:26;10.50;99.90
33715;DHT22;20043;50.998;4.754;2023-04-25T02:32:52;10.50;99.90
33715;DHT22;20043;50.998;4.754;2023-04-25T02:35:18;10.50;99.90
33715;DHT22;20043;50.998;4.754;2023-04-25T02:37:43;10.50;99.90
33715;DHT22;20043;50.998;4.754;2023-04-25T02:40:09;10.50;99.90
33715;DHT22;20043;50.998;4.754;2023-04-25T02:42:35;10.30;99.90
33715;DHT22;20043;50.998;4.754;2023-04-25T02:45:01;10.40;99.90
33715;DHT22;20043;50.998;4.754;2023-04-25T02:47:27;10.30;99.90
33715;DHT22;20043;50.998;4.754;2023-04-25T02:49:53;10.20;99.90
33715;DHT22;20043;50.998;4.754;2023-04-25T02:52:19;10.30;99.90
33715;DHT22;20043;50.998;4.754;2023-04-25T02:54:45;10.30;99.90
33715;DHT22;20043;50.998;4.754;2023-04-25T02:57:10;10.20;99.90
33715;DHT22;20043;50.998;4.754;2023-04-25T02:59:36;10.10;99.90
33715;DHT22;20043;50.998;4.754;2023-04-25T03:02:02;10.10;99.90
33715;DHT22;20043;50.998;4.754;2023-04-25T03:04:27;10.10;99.90
33715;DHT22;20043;50.998;4.754;2023-04-25T03:06:53;10.00;99.90
33715;DHT22;20043;50.998;4.754;2023-04-25T03:09:19;9.90;99.90
33715;DHT22;20043;50.998;4.754;2023-04-25T03:11:45;9.80;99.90
33715;DHT22;20043;50.998;4.754;2023-04-25T03:14:11;10.00;99.90
33715;DHT22;20043;50.998;4.754;2023-04-25T03:16:37;10.00;99.90
33715;DHT22;20043;50.998;4.754;2023-04-25T03:19:03;9.90;99.90
33715;DHT22;20043;50.998;4.754;2023-04-25T03:21:29;9.90;99.90
33715;DHT22;20043;50.998;4.754;2023-04-25T03:23:57;9.70;99.90
33715;DHT22;20043;50.998;4.754;2023-04-25T03:26:23;9.50;99.90
33715;DHT22;20043;50.998;4.754;2023-04-25T03:28:48;9.30;99.90
33715;DHT22;20043;50.998;4.754;2023-04-25T03:31:14;9.00;99.90
33715;DHT22;20043;50.998;4.754;2023-04-25T03:33:40;9.00;99.90
33715;DHT22;20043;50.998;4.754;2023-04-25T03:36:06;8.80;99.90
33715;DHT22;20043;50.998;4.754;2023-04-25T03:38:31;8.90;99.90
33715;DHT22;20043;50.998;4.754;2023-04-25T03:40:57;8.80;99.90
33715;DHT22;20043;50.998;4.754;2023-04-25T03:43:23;8.90;99.90
33715;DHT22;20043;50.998;4.754;2023-04-25T03:45:48;8.90;99.90
33715;DHT22;20043;50.998;4.754;2023-04-25T03:48:14;8.90;99.90
33715;DHT22;20043;50.998;4.754;2023-04-25T03:50:40;9.10;99.90
33715;DHT22;20043;50.998;4.754;2023-04-25T03:53:06;9.10;99.90
33715;DHT22;20043;50.998;4.754;2023-04-25T03:55:31;9.10;99.90
33715;DHT22;20043;50.998;4.754;2023-04-25T03:57:58;9.40;99.90
33715;DHT22;20043;50.998;4.754;2023-04-25T04:00:24;9.30;99.90
33715;DHT22;20043;50.998;4.754;2023-04-25T04:02:50;9.40;99.90
33715;DHT22;20043;50.998;4.754;2023-04-25T04:05:16;9.40;99.90
33715;DHT22;20043;50.998;4.754;2023-04-25T04:07:41;9.60;99.90
33715;DHT22;20043;50.998;4.754;2023-04-25T04:10:11;9.60;99.90
33715;DHT22;20043;50.998;4.754;2023-04-25T04:12:37;9.60;99.90
33715;DHT22;20043;50.998;4.754;2023-04-25T04:15:04;9.70;99.90
33715;DHT22;20043;50.998;4.754;2023-04-25T04:17:30;9.70;99.90
33715;DHT22;20043;50.998;4.754;2023-04-25T04:19:56;9.70;99.90
33715;DHT22;20043;50.998;4.754;2023-04-25T04:22:22;9.60;99.90
33715;DHT22;20043;50.998;4.754;2023-04-25T04:24:48;9.60;99.90
33715;DHT22;20043;50.998;4.754;2023-04-25T04:27:16;9.80;99.90
33715;DHT22;20043;50.998;4.754;2023-04-25T04:29:43;9.90;99.90
33715;DHT22;20043;50.998;4.754;2023-04-25T04:32:08;10.10;99.90
33715;DHT22;20043;50.998;4.754;2023-04-25T04:34:34;9.90;99.90
33715;DHT22;20043;50.998;4.754;2023-04-25T04:37:00;9.80;99.90
33715;DHT22;20043;50.998;4.754;2023-04-25T04:39:26;9.70;99.90
33715;DHT22;20043;50.998;4.754;2023-04-25T04:41:51;9.80;99.90
33715;DHT22;20043;50.998;4.754;2023-04-25T04:44:17;9.90;99.90
33715;DHT22;20043;50.998;4.754;2023-04-25T04:46:43;9.90;99.90
33715;DHT22;20043;50.998;4.754;2023-04-25T04:49:10;9.80;99.90
33715;DHT22;20043;50.998;4.754;2023-04-25T04:51:37;9.90;99.90
33715;DHT22;20043;50.998;4.754;2023-04-25T04:54:03;9.80;99.90
33715;DHT22;20043;50.998;4.754;2023-04-25T04:56:29;9.90;99.90
33715;DHT22;20043;50.998;4.754;2023-04-25T04:58:57;10.00;99.90
33715;DHT22;20043;50.998;4.754;2023-04-25T05:01:23;10.00;99.90
33715;DHT22;20043;50.998;4.754;2023-04-25T05:03:49;10.00;99.90
33715;DHT22;20043;50.998;4.754;2023-04-25T05:06:16;10.00;99.90
33715;DHT22;20043;50.998;4.754;2023-04-25T05:08:42;10.00;99.90
33715;DHT22;20043;50.998;4.754;2023-04-25T05:11:07;10.00;99.90
33715;DHT22;20043;50.998;4.754;2023-04-25T05:13:33;10.10;99.90
33715;DHT22;20043;50.998;4.754;2023-04-25T05:15:58;10.10;99.90
33715;DHT22;20043;50.998;4.754;2023-04-25T05:18:24;10.00;99.90
33715;DHT22;20043;50.998;4.754;2023-04-25T05:20:50;10.00;99.90
33715;DHT22;20043;50.998;4.754;2023-04-25T05:23:16;10.00;99.90
33715;DHT22;20043;50.998;4.754;2023-04-25T05:25:41;10.00;99.90
33715;DHT22;20043;50.998;4.754;2023-04-25T05:28:07;10.00;99.90
33715;DHT22;20043;50.998;4.754;2023-04-25T05:30:34;9.90;99.90
33715;DHT22;20043;50.998;4.754;2023-04-25T05:32:59;9.90;99.90
33715;DHT22;20043;50.998;4.754;2023-04-25T05:35:26;9.90;99.90
33715;DHT22;20043;50.998;4.754;2023-04-25T05:37:51;10.00;99.90
33715;DHT22;20043;50.998;4.754;2023-04-25T05:40:17;10.00;99.90
33715;DHT22;20043;50.998;4.754;2023-04-25T05:42:42;10.00;99.90
33715;DHT22;20043;50.998;4.754;2023-04-25T05:45:08;10.00;99.90
33715;DHT22;20043;50.998;4.754;2023-04-25T05:47:34;10.10;99.90
33715;DHT22;20043;50.998;4.754;2023-04-25T05:50:00;10.20;99.90
33715;DHT22;20043;50.998;4.754;2023-04-25T05:52:26;10.30;99.90
33715;DHT22;20043;50.998;4.754;2023-04-25T05:54:52;10.30;99.90
33715;DHT22;20043;50.998;4.754;2023-04-25T05:57:26;10.40;99.90
33715;DHT22;20043;50.998;4.754;2023-04-25T05:59:52;10.40;99.90
33715;DHT22;20043;50.998;4.754;2023-04-25T06:02:19;10.30;99.90
33715;DHT22;20043;50.998;4.754;2023-04-25T06:04:46;10.30;99.90
33715;DHT22;20043;50.998;4.754;2023-04-25T06:07:12;10.30;99.90
33715;DHT22;20043;50.998;4.754;2023-04-25T06:09:38;10.40;99.90
33715;DHT22;20043;50.998;4.754;2023-04-25T06:12:05;10.50;99.90
33715;DHT22;20043;50.998;4.754;2023-04-25T06:14:31;10.40;99.90
33715;DHT22;20043;50.998;4.754;2023-04-25T06:16:56;10.30;99.90
33715;DHT22;20043;50.998;4.754;2023-04-25T06:19:22;10.20;99.90
33715;DHT22;20043;50.998;4.754;2023-04-25T06:21:48;10.20;99.90
33715;DHT22;20043;50.998;4.754;2023-04-25T06:24:13;10.30;99.90
33715;DHT22;20043;50.998;4.754;2023-04-25T06:26:39;10.30;99.90
33715;DHT22;20043;50.998;4.754;2023-04-25T06:29:04;10.30;99.90
33715;DHT22;20043;50.998;4.754;2023-04-25T06:31:30;10.30;99.90
33715;DHT22;20043;50.998;4.754;2023-04-25T06:33:58;10.40;99.90
33715;DHT22;20043;50.998;4.754;2023-04-25T06:36:24;10.40;99.90
33715;DHT22;20043;50.998;4.754;2023-04-25T06:38:51;10.50;99.90
33715;DHT22;20043;50.998;4.754;2023-04-25T06:41:17;10.50;99.90
33715;DHT22;20043;50.998;4.754;2023-04-25T06:43:44;10.60;99.90
33715;DHT22;20043;50.998;4.754;2023-04-25T06:46:09;10.50;99.90
33715;DHT22;20043;50.998;4.754;2023-04-25T06:48:35;10.30;99.90
33715;DHT22;20043;50.998;4.754;2023-04-25T06:51:01;10.40;99.90
33715;DHT22;20043;50.998;4.754;2023-04-25T06:53:26;10.50;99.90
33715;DHT22;20043;50.998;4.754;2023-04-25T06:55:59;10.40;99.90
33715;DHT22;20043;50.998;4.754;2023-04-25T06:58:24;10.60;99.90
33715;DHT22;20043;50.998;4.754;2023-04-25T07:00:51;10.50;99.90
33715;DHT22;20043;50.998;4.754;2023-04-25T07:03:17;10.40;99.90
33715;DHT22;20043;50.998;4.754;2023-04-25T07:05:42;10.40;99.90
33715;DHT22;20043;50.998;4.754;2023-04-25T07:08:08;10.30;99.90
33715;DHT22;20043;50.998;4.754;2023-04-25T07:10:34;10.50;99.90
33715;DHT22;20043;50.998;4.754;2023-04-25T07:13:00;10.70;99.90
33715;DHT22;20043;50.998;4.754;2023-04-25T07:15:25;10.90;99.90
33715;DHT22;20043;50.998;4.754;2023-04-25T07:17:51;10.60;99.90
33715;DHT22;20043;50.998;4.754;2023-04-25T07:20:17;10.50;99.90
33715;DHT22;20043;50.998;4.754;2023-04-25T07:22:42;10.50;99.90
33715;DHT22;20043;50.998;4.754;2023-04-25T07:25:08;10.40;99.90
33715;DHT22;20043;50.998;4.754;2023-04-25T07:27:34;10.40;99.90
33715;DHT22;20043;50.998;4.754;2023-04-25T07:29:59;10.30;99.90
33715;DHT22;20043;50.998;4.754;2023-04-25T07:32:26;10.50;99.90
33715;DHT22;20043;50.998;4.754;2023-04-25T07:34:52;10.50;99.90
33715;DHT22;20043;50.998;4.754;2023-04-25T07:37:17;10.60;99.90
33715;DHT22;20043;50.998;4.754;2023-04-25T07:39:44;10.90;99.90
33715;DHT22;20043;50.998;4.754;2023-04-25T07:42:11;10.80;99.90
33715;DHT22;20043;50.998;4.754;2023-04-25T07:44:37;10.70;99.90
33715;DHT22;20043;50.998;4.754;2023-04-25T07:47:06;10.70;99.90
33715;DHT22;20043;50.998;4.754;2023-04-25T07:49:37;10.60;99.90
33715;DHT22;20043;50.998;4.754;2023-04-25T07:52:04;10.80;99.90
33715;DHT22;20043;50.998;4.754;2023-04-25T07:54:31;10.90;99.90
33715;DHT22;20043;50.998;4.754;2023-04-25T07:56:57;10.90;99.90
33715;DHT22;20043;50.998;4.754;2023-04-25T07:59:22;11.10;99.90
33715;DHT22;20043;50.998;4.754;2023-04-25T08:01:48;11.00;99.90
33715;DHT22;20043;50.998;4.754;2023-04-25T08:04:14;11.00;99.90
33715;DHT22;20043;50.998;4.754;2023-04-25T08:06:40;10.80;99.90
33715;DHT22;20043;50.998;4.754;2023-04-25T08:09:06;10.70;99.90
33715;DHT22;20043;50.998;4.754;2023-04-25T08:11:32;11.00;99.90
33715;DHT22;20043;50.998;4.754;2023-04-25T08:13:57;11.10;99.90
33715;DHT22;20043;50.998;4.754;2023-04-25T08:16:23;11.20;99.90
33715;DHT22;20043;50.998;4.754;2023-04-25T08:18:50;11.20;99.90
33715;DHT22;20043;50.998;4.754;2023-04-25T08:21:16;11.30;99.90
33715;DHT22;20043;50.998;4.754;2023-04-25T08:23:41;11.20;99.90
33715;DHT22;20043;50.998;4.754;2023-04-25T08:26:07;11.00;99.90
33715;DHT22;20043;50.998;4.754;2023-04-25T08:28:33;11.00;99.90
33715;DHT22;20043;50.998;4.754;2023-04-25T08:30:58;10.90;99.90
33715;DHT22;20043;50.998;4.754;2023-04-25T08:33:25;10.90;99.90
33715;DHT22;20043;50.998;4.754;2023-04-25T08:35:50;11.10;99.90
33715;DHT22;20043;50.998;4.754;2023-04-25T08:38:17;11.40;99.90
33715;DHT22;20043;50.998;4.754;2023-04-25T08:40:43;11.60;99.90
33715;DHT22;20043;50.998;4.754;2023-04-25T08:43:10;11.90;99.90
33715;DHT22;20043;50.998;4.754;2023-04-25T08:45:41;12.10;99.90
33715;DHT22;20043;50.998;4.754;2023-04-25T08:48:11;12.20;99.90
33715;DHT22;20043;50.998;4.754;2023-04-25T08:50:40;12.00;99.90
33715;DHT22;20043;50.998;4.754;2023-04-25T08:53:08;11.90;99.90
33715;DHT22;20043;50.998;4.754;2023-04-25T08:55:37;12.00;99.90
33715;DHT22;20043;50.998;4.754;2023-04-25T08:58:06;12.20;99.90
33715;DHT22;20043;50.998;4.754;2023-04-25T09:00:32;11.90;99.90
33715;DHT22;20043;50.998;4.754;2023-04-25T09:02:58;11.90;99.90
33715;DHT22;20043;50.998;4.754;2023-04-25T09:05:24;11.90;99.90
33715;DHT22;20043;50.998;4.754;2023-04-25T09:07:50;11.70;99.90
33715;DHT22;20043;50.998;4.754;2023-04-25T09:10:16;11.90;99.90
33715;DHT22;20043;50.998;4.754;2023-04-25T09:12:42;11.90;99.90
33715;DHT22;20043;50.998;4.754;2023-04-25T09:15:10;11.60;99.90
33715;DHT22;20043;50.998;4.754;2023-04-25T09:17:36;11.40;99.90
33715;DHT22;20043;50.998;4.754;2023-04-25T09:20:07;11.40;99.90
33715;DHT22;20043;50.998;4.754;2023-04-25T09:22:34;11.50;99.90
33715;DHT22;20043;50.998;4.754;2023-04-25T09:25:11;11.60;99.90
33715;DHT22;20043;50.998;4.754;2023-04-25T09:27:53;11.60;99.90
33715;DHT22;20043;50.998;4.754;2023-04-25T09:30:18;11.20;99.90
33715;DHT22;20043;50.998;4.754;2023-04-25T09:32:56;10.70;99.90
33715;DHT22;20043;50.998;4.754;2023-04-25T09:35:24;10.60;99.90
33715;DHT22;20043;50.998;4.754;2023-04-25T09:37:50;10.70;99.90
33715;DHT22;20043;50.998;4.754;2023-04-25T09:40:23;10.70;99.90
33715;DHT22;20043;50.998;4.754;2023-04-25T09:42:48;10.70;99.90
33715;DHT22;20043;50.998;4.754;2023-04-25T09:45:14;10.90;99.90
33715;DHT22;20043;50.998;4.754;2023-04-25T09:47:42;10.90;99.90
33715;DHT22;20043;50.998;4.754;2023-04-25T09:50:16;11.00;99.90
33715;DHT22;20043;50.998;4.754;2023-04-25T09:52:42;10.80;99.90
33715;DHT22;20043;50.998;4.754;2023-04-25T09:55:08;10.80;99.90
33715;DHT22;20043;50.998;4.754;2023-04-25T09:57:35;10.70;99.90
33715;DHT22;20043;50.998;4.754;2023-04-25T10:00:05;10.90;99.90
33715;DHT22;20043;50.998;4.754;2023-04-25T10:02:35;11.30;99.90
33715;DHT22;20043;50.998;4.754;2023-04-25T10:05:05;11.60;99.90
33715;DHT22;20043;50.998;4.754;2023-04-25T10:07:33;11.80;99.90
33715;DHT22;20043;50.998;4.754;2023-04-25T10:10:02;12.00;99.90
33715;DHT22;20043;50.998;4.754;2023-04-25T10:12:29;12.20;99.90
33715;DHT22;20043;50.998;4.754;2023-04-25T10:14:58;12.40;99.90
33715;DHT22;20043;50.998;4.754;2023-04-25T10:17:24;12.60;99.90
33715;DHT22;20043;50.998;4.754;2023-04-25T10:19:52;12.70;99.90
33715;DHT22;20043;50.998;4.754;2023-04-25T10:22:38;12.50;99.90
33715;DHT22;20043;50.998;4.754;2023-04-25T10:25:05;12.60;99.90
33715;DHT22;20043;50.998;4.754;2023-04-25T10:27:31;12.80;99.90
33715;DHT22;20043;50.998;4.754;2023-04-25T10:30:05;13.10;99.90
33715;DHT22;20043;50.998;4.754;2023-04-25T10:32:35;13.10;99.90
33715;DHT22;20043;50.998;4.754;2023-04-25T10:35:18;13.10;99.90
33715;DHT22;20043;50.998;4.754;2023-04-25T10:38:09;13.20;99.90
33715;DHT22;20043;50.998;4.754;2023-04-25T10:40:35;13.30;99.90
33715;DHT22;20043;50.998;4.754;2023-04-25T10:43:34;13.30;99.90
33715;DHT22;20043;50.998;4.754;2023-04-25T10:46:00;13.20;99.90
33715;DHT22;20043;50.998;4.754;2023-04-25T10:48:27;13.20;99.90
33715;DHT22;20043;50.998;4.754;2023-04-25T10:51:09;13.20;99.90
33715;DHT22;20043;50.998;4.754;2023-04-25T10:53:35;13.20;99.90
33715;DHT22;20043;50.998;4.754;2023-04-25T10:56:09;13.00;99.90
33715;DHT22;20043;50.998;4.754;2023-04-25T10:58:34;12.80;99.90
33715;DHT22;20043;50.998;4.754;2023-04-25T11:01:01;12.70;99.90
33715;DHT22;20043;50.998;4.754;2023-04-25T11:03:27;12.80;99.90
33715;DHT22;20043;50.998;4.754;2023-04-25T11:05:52;13.00;99.90
33715;DHT22;20043;50.998;4.754;2023-04-25T11:08:28;13.30;99.90
33715;DHT22;20043;50.998;4.754;2023-04-25T11:11:01;13.30;99.90
33715;DHT22;20043;50.998;4.754;2023-04-25T11:13:30;13.30;99.90
33715;DHT22;20043;50.998;4.754;2023-04-25T11:15:56;13.20;99.90
33715;DHT22;20043;50.998;4.754;2023-04-25T11:18:25;13.10;99.90
33715;DHT22;20043;50.998;4.754;2023-04-25T11:20:51;13.10;99.90
33715;DHT22;20043;50.998;4.754;2023-04-25T11:23:16;12.90;99.90
33715;DHT22;20043;50.998;4.754;2023-04-25T11:25:42;12.70;99.90
33715;DHT22;20043;50.998;4.754;2023-04-25T11:28:08;12.30;99.90
33715;DHT22;20043;50.998;4.754;2023-04-25T11:30:33;12.20;99.90
33715;DHT22;20043;50.998;4.754;2023-04-25T11:32:59;12.00;99.90
33715;DHT22;20043;50.998;4.754;2023-04-25T11:35:25;11.80;99.90
33715;DHT22;20043;50.998;4.754;2023-04-25T11:37:51;11.70;99.90
33715;DHT22;20043;50.998;4.754;2023-04-25T11:40:16;11.70;99.90
33715;DHT22;20043;50.998;4.754;2023-04-25T11:42:46;11.70;99.90
33715;DHT22;20043;50.998;4.754;2023-04-25T11:45:12;11.80;99.90
33715;DHT22;20043;50.998;4.754;2023-04-25T11:47:38;11.70;99.90
33715;DHT22;20043;50.998;4.754;2023-04-25T11:50:06;11.60;99.90
33715;DHT22;20043;50.998;4.754;2023-04-25T11:52:59;11.70;99.90
33715;DHT22;20043;50.998;4.754;2023-04-25T11:55:24;12.00;99.90
33715;DHT22;20043;50.998;4.754;2023-04-25T11:57:50;12.30;99.90
33715;DHT22;20043;50.998;4.754;2023-04-25T12:00:18;12.40;99.90
33715;DHT22;20043;50.998;4.754;2023-04-25T12:02:55;12.60;99.90
33715;DHT22;20043;50.998;4.754;2023-04-25T12:05:30;13.10;99.90
33715;DHT22;20043;50.998;4.754;2023-04-25T12:07:56;13.50;99.90
33715;DHT22;20043;50.998;4.754;2023-04-25T12:10:24;13.70;99.90
33715;DHT22;20043;50.998;4.754;2023-04-25T12:12:50;13.90;99.90
33715;DHT22;20043;50.998;4.754;2023-04-25T12:15:18;13.90;99.90
33715;DHT22;20043;50.998;4.754;2023-04-25T12:17:48;13.70;99.90
33715;DHT22;20043;50.998;4.754;2023-04-25T12:20:15;13.60;99.90
33715;DHT22;20043;50.998;4.754;2023-04-25T12:22:43;13.70;99.90
33715;DHT22;20043;50.998;4.754;2023-04-25T12:25:11;13.80;99.90
33715;DHT22;20043;50.998;4.754;2023-04-25T12:27:38;14.00;99.90
33715;DHT22;20043;50.998;4.754;2023-04-25T12:30:06;13.70;99.90
33715;DHT22;20043;50.998;4.754;2023-04-25T12:32:32;13.10;99.90
33715;DHT22;20043;50.998;4.754;2023-04-25T12:34:58;12.90;99.90
33715;DHT22;20043;50.998;4.754;2023-04-25T12:37:23;12.90;99.90
33715;DHT22;20043;50.998;4.754;2023-04-25T12:39:49;12.80;99.90
33715;DHT22;20043;50.998;4.754;2023-04-25T12:42:14;12.50;99.90
33715;DHT22;20043;50.998;4.754;2023-04-25T12:44:40;12.20;99.90
33715;DHT22;20043;50.998;4.754;2023-04-25T12:47:06;12.40;99.90
33715;DHT22;20043;50.998;4.754;2023-04-25T12:49:32;12.30;99.90
33715;DHT22;20043;50.998;4.754;2023-04-25T12:51:58;12.40;99.90
33715;DHT22;20043;50.998;4.754;2023-04-25T12:54:23;12.50;99.90
33715;DHT22;20043;50.998;4.754;2023-04-25T12:56:50;12.90;99.90
33715;DHT22;20043;50.998;4.754;2023-04-25T12:59:15;13.20;99.90
33715;DHT22;20043;50.998;4.754;2023-04-25T13:01:41;13.40;99.90
33715;DHT22;20043;50.998;4.754;2023-04-25T13:04:07;13.50;99.90
33715;DHT22;20043;50.998;4.754;2023-04-25T13:06:32;13.50;99.90
33715;DHT22;20043;50.998;4.754;2023-04-25T13:08:58;13.40;99.90
33715;DHT22;20043;50.998;4.754;2023-04-25T13:11:24;13.10;99.90
33715;DHT22;20043;50.998;4.754;2023-04-25T13:13:49;12.80;99.90
33715;DHT22;20043;50.998;4.754;2023-04-25T13:16:15;12.70;99.90
33715;DHT22;20043;50.998;4.754;2023-04-25T13:18:41;12.60;99.90
33715;DHT22;20043;50.998;4.754;2023-04-25T13:21:06;12.50;99.90
33715;DHT22;20043;50.998;4.754;2023-04-25T13:23:32;12.80;99.90
33715;DHT22;20043;50.998;4.754;2023-04-25T13:25:58;13.10;99.90
33715;DHT22;20043;50.998;4.754;2023-04-25T13:28:24;13.20;99.90
33715;DHT22;20043;50.998;4.754;2023-04-25T13:30:50;13.30;99.90
33715;DHT22;20043;50.998;4.754;2023-04-25T13:33:17;13.50;99.90
33715;DHT22;20043;50.998;4.754;2023-04-25T13:35:43;13.70;99.90
33715;DHT22;20043;50.998;4.754;2023-04-25T13:38:12;13.70;99.90
33715;DHT22;20043;50.998;4.754;2023-04-25T13:40:38;13.80;99.90
33715;DHT22;20043;50.998;4.754;2023-04-25T13:43:03;13.90;99.90
33715;DHT22;20043;50.998;4.754;2023-04-25T13:45:29;14.30;99.90
33715;DHT22;20043;50.998;4.754;2023-04-25T13:47:55;14.30;99.90
33715;DHT22;20043;50.998;4.754;2023-04-25T13:50:21;14.20;99.90
33715;DHT22;20043;50.998;4.754;2023-04-25T13:52:47;13.90;99.90
33715;DHT22;20043;50.998;4.754;2023-04-25T13:55:12;13.60;99.90
33715;DHT22;20043;50.998;4.754;2023-04-25T13:57:38;13.50;99.90
33715;DHT22;20043;50.998;4.754;2023-04-25T14:00:05;13.10;99.90
33715;DHT22;20043;50.998;4.754;2023-04-25T14:02:39;13.00;99.90
33715;DHT22;20043;50.998;4.754;2023-04-25T14:05:05;12.60;99.90
33715;DHT22;20043;50.998;4.754;2023-04-25T14:07:33;12.70;99.90
33715;DHT22;20043;50.998;4.754;2023-04-25T14:10:00;12.70;99.90
33715;DHT22;20043;50.998;4.754;2023-04-25T14:12:26;12.50;99.90
33715;DHT22;20043;50.998;4.754;2023-04-25T14:15:00;12.50;99.90
33715;DHT22;20043;50.998;4.754;2023-04-25T14:17:26;12.60;99.90
33715;DHT22;20043;50.998;4.754;2023-04-25T14:19:51;12.70;99.90
33715;DHT22;20043;50.998;4.754;2023-04-25T14:22:24;12.50;99.90
33715;DHT22;20043;50.998;4.754;2023-04-25T14:24:56;12.70;99.90
33715;DHT22;20043;50.998;4.754;2023-04-25T14:27:21;12.70;99.90
33715;DHT22;20043;50.998;4.754;2023-04-25T14:29:47;12.90;99.90
33715;DHT22;20043;50.998;4.754;2023-04-25T14:32:13;13.00;99.90
33715;DHT22;20043;50.998;4.754;2023-04-25T14:34:38;13.20;99.90
33715;DHT22;20043;50.998;4.754;2023-04-25T14:37:04;13.10;99.90
33715;DHT22;20043;50.998;4.754;2023-04-25T14:39:29;13.00;99.90
33715;DHT22;20043;50.998;4.754;2023-04-25T14:41:55;12.70;99.90
33715;DHT22;20043;50.998;4.754;2023-04-25T14:44:21;12.90;99.90
33715;DHT22;20043;50.998;4.754;2023-04-25T14:46:47;13.10;99.90
33715;DHT22;20043;50.998;4.754;2023-04-25T14:49:13;13.00;99.90
33715;DHT22;20043;50.998;4.754;2023-04-25T14:51:38;13.00;99.90
33715;DHT22;20043;50.998;4.754;2023-04-25T14:54:04;12.90;99.90
33715;DHT22;20043;50.998;4.754;2023-04-25T14:56:29;12.70;99.90
33715;DHT22;20043;50.998;4.754;2023-04-25T14:58:55;12.50;99.90
33715;DHT22;20043;50.998;4.754;2023-04-25T15:01:22;12.40;99.90
33715;DHT22;20043;50.998;4.754;2023-04-25T15:03:47;12.40;99.90
33715;DHT22;20043;50.998;4.754;2023-04-25T15:06:13;12.30;99.90
33715;DHT22;20043;50.998;4.754;2023-04-25T15:08:39;12.30;99.90
33715;DHT22;20043;50.998;4.754;2023-04-25T15:11:05;12.50;99.90
33715;DHT22;20043;50.998;4.754;2023-04-25T15:13:30;12.70;99.90
33715;DHT22;20043;50.998;4.754;2023-04-25T15:15:57;12.80;99.90
33715;DHT22;20043;50.998;4.754;2023-04-25T15:18:22;12.90;99.90
33715;DHT22;20043;50.998;4.754;2023-04-25T15:20:50;12.90;99.90
33715;DHT22;20043;50.998;4.754;2023-04-25T15:23:17;12.90;99.90
33715;DHT22;20043;50.998;4.754;2023-04-25T15:25:43;13.00;99.90
33715;DHT22;20043;50.998;4.754;2023-04-25T15:28:09;13.30;99.90
33715;DHT22;20043;50.998;4.754;2023-04-25T15:30:34;13.40;99.90